Terminal Aerodrome Forecast
Issued by NWS Sterling, VA

Current Version | Previous Version | Graphics & Text | Print | Product List | Glossary On
Versions: 1 2 3 4 5 6 7 8 9 10 11 12 13 14 15 16 17 18 19 20 21 22 23 24
000
FTUS41 KLWX 232341
TAFDCA
TAF
KDCA 232341Z 2400/2424 09005KT P6SM FEW070 OVC140
     FM240700 05004KT P6SM -RA OVC060
     FM241600 05010G17KT P6SM -RA SCT025 OVC040
     FM241800 06013G20KT 5SM -RA SCT010 OVC025=

USA.gov is the U.S. government's official web portal to all federal, state and local government web resources and services.